Sanharo, Brazil
Current Conditions -  °F | °C
As of 7:00 AM on Thursday 27 Nov 2014 (Local Time) from SBKG Reporting Station
Light Rain Light Rain  
Wind Chill: 70°   Ceiling: 900
Heat Index: 70°   Visibility: 1.7mi
Dew Point: 68°   Wind: 10mph
Humidity: 94%   Direction: 110°ESE
Pressure: 30"   Gusts: NA
Location:  8.36°S, 36.57°W
Report Text: SBKG 271000Z 11009KT 2800 -DZRA BR SCT003 BKN009 21/20 Q1016 REDZ
Loading
Personal Weather Stations






























Interactive Weather Map New forecast layout! Learn more

10-Day Weather Forecast

Advertisements
Track Severe Weather on mobile